createdAt,value
2017-11-09T00:01:57.142Z,77.47
2017-11-09T00:04:30.845Z,77.74
2017-11-09T00:06:58.460Z,77.88
2017-11-09T00:09:26.150Z,77.80
2017-11-09T00:11:53.750Z,78.14
2017-11-09T00:14:21.605Z,78.47
2017-11-09T00:16:49.236Z,78.02
2017-11-09T00:19:17.141Z,78.25
2017-11-09T00:21:44.763Z,77.94
2017-11-09T00:24:12.378Z,77.49
2017-11-09T00:26:39.991Z,76.95
2017-11-09T00:29:07.610Z,77.14
2017-11-09T00:31:35.552Z,76.80
2017-11-09T00:34:03.517Z,76.80
2017-11-09T00:36:31.247Z,76.58
2017-11-09T00:38:58.887Z,76.62
2017-11-09T00:41:26.506Z,76.67
2017-11-09T00:43:54.133Z,76.86
2017-11-09T00:46:21.755Z,77.01
2017-11-09T00:48:49.360Z,76.86
2017-11-09T00:51:16.997Z,77.02
2017-11-09T00:53:44.932Z,77.38
2017-11-09T00:56:12.553Z,77.76
2017-11-09T00:58:40.149Z,78.19
2017-11-09T01:01:07.770Z,78.32
2017-11-09T01:03:35.380Z,78.02
2017-11-09T01:06:03.000Z,78.45
2017-11-09T01:08:30.664Z,78.19
2017-11-09T01:10:58.266Z,78.24
2017-11-09T01:13:25.859Z,78.47
2017-11-09T01:15:53.482Z,78.33
2017-11-09T01:18:21.104Z,78.38
2017-11-09T01:20:48.746Z,79.32
2017-11-09T01:23:16.329Z,79.42
2017-11-09T01:25:43.946Z,79.06
2017-11-09T01:28:11.590Z,78.79
2017-11-09T01:30:39.228Z,79.12
2017-11-09T01:33:06.927Z,79.04
2017-11-09T01:35:34.519Z,79.03
2017-11-09T01:38:02.118Z,79.14
2017-11-09T01:40:30.603Z,79.17
2017-11-09T01:42:58.190Z,78.95
2017-11-09T01:45:25.830Z,78.36
2017-11-09T01:47:53.498Z,78.30
2017-11-09T01:50:21.094Z,78.31
2017-11-09T01:52:48.731Z,78.31
2017-11-09T01:55:16.334Z,77.53
2017-11-09T01:57:44.024Z,77.80
2017-11-09T02:00:11.617Z,78.02
2017-11-09T02:02:39.263Z,78.28
2017-11-09T02:05:06.905Z,78.26
2017-11-09T02:07:34.518Z,78.43
2017-11-09T02:10:02.165Z,78.24
2017-11-09T02:12:29.759Z,78.37
2017-11-09T02:14:57.386Z,78.26
2017-11-09T02:17:25.267Z,78.81
2017-11-09T02:19:52.916Z,78.87
2017-11-09T02:22:20.795Z,79.76
2017-11-09T02:24:48.402Z,79.83
2017-11-09T02:27:16.317Z,79.96
2017-11-09T02:29:44.219Z,79.99
2017-11-09T02:32:11.840Z,80.15
2017-11-09T02:34:39.736Z,79.72
2017-11-09T02:37:07.343Z,79.47
2017-11-09T02:39:34.966Z,79.46
2017-11-09T02:42:02.579Z,79.33
2017-11-09T02:44:30.174Z,78.96
2017-11-09T02:46:57.806Z,79.28
2017-11-09T02:49:25.403Z,79.02
2017-11-09T02:51:53.278Z,79.33
2017-11-09T02:54:28.688Z,79.81
2017-11-09T02:56:56.281Z,79.65
2017-11-09T02:59:23.929Z,79.49
2017-11-09T03:01:51.532Z,79.39
2017-11-09T03:04:19.127Z,79.32
2017-11-09T03:06:46.789Z,79.20
2017-11-09T03:09:14.405Z,78.93
2017-11-09T03:11:42.060Z,78.93
2017-11-09T03:14:09.646Z,79.07
2017-11-09T03:16:37.234Z,79.14
2017-11-09T03:19:05.153Z,79.14
2017-11-09T03:21:32.745Z,78.65
2017-11-09T03:24:00.387Z,78.68
2017-11-09T03:26:28.263Z,78.55
2017-11-09T03:28:56.110Z,78.69
2017-11-09T03:31:23.732Z,78.94
2017-11-09T03:33:51.637Z,78.34
2017-11-09T03:36:19.276Z,78.55
2017-11-09T03:38:46.871Z,78.84
2017-11-09T03:41:14.491Z,79.55
2017-11-09T03:43:42.109Z,79.71
2017-11-09T03:46:09.707Z,79.62
2017-11-09T03:48:37.352Z,79.27
2017-11-09T03:51:04.958Z,78.93
2017-11-09T03:53:32.835Z,78.86
2017-11-09T03:56:00.457Z,78.49
2017-11-09T03:58:28.382Z,78.77
2017-11-09T04:00:56.042Z,79.08
2017-11-09T04:03:23.640Z,79.00
2017-11-09T04:05:51.245Z,78.89
2017-11-09T04:08:18.885Z,78.76
2017-11-09T04:10:46.524Z,78.98
2017-11-09T04:13:14.188Z,79.26
2017-11-09T04:15:41.787Z,79.43
2017-11-09T04:18:09.464Z,79.46
2017-11-09T04:20:37.098Z,79.47
2017-11-09T04:23:04.706Z,79.54
2017-11-09T04:25:32.346Z,79.49
2017-11-09T04:27:59.990Z,79.14
2017-11-09T04:30:27.619Z,79.05
2017-11-09T04:32:55.264Z,79.10
2017-11-09T04:35:22.873Z,78.93
2017-11-09T04:37:50.525Z,79.27
2017-11-09T04:40:18.438Z,79.30
2017-11-09T04:42:46.035Z,79.29
2017-11-09T04:45:13.664Z,79.24
2017-11-09T04:47:41.254Z,79.54
2017-11-09T04:50:08.887Z,79.49
2017-11-09T04:52:36.517Z,79.52
2017-11-09T04:55:04.142Z,79.59
2017-11-09T04:57:31.754Z,79.59
2017-11-09T05:00:00.090Z,79.40
2017-11-09T05:02:27.890Z,79.35
2017-11-09T05:04:55.487Z,79.35
2017-11-09T05:07:23.114Z,79.17
2017-11-09T05:09:50.746Z,79.34
2017-11-09T05:12:18.391Z,79.06
2017-11-09T05:14:46.025Z,79.12
2017-11-09T05:17:13.998Z,79.12
2017-11-09T05:19:41.599Z,78.92
2017-11-09T05:22:09.263Z,79.00
2017-11-09T05:24:36.917Z,78.78
2017-11-09T05:27:04.859Z,79.12
2017-11-09T05:29:32.473Z,79.37
2017-11-09T05:32:00.086Z,79.44
2017-11-09T05:34:27.722Z,79.15
2017-11-09T05:36:55.349Z,79.25
2017-11-09T05:39:22.991Z,78.70
2017-11-09T05:41:50.606Z,78.99
2017-11-09T05:44:18.229Z,79.34
2017-11-09T05:46:45.901Z,79.15
2017-11-09T05:49:13.503Z,79.32
2017-11-09T05:51:41.164Z,79.30
2017-11-09T05:54:08.761Z,78.90
2017-11-09T05:56:36.358Z,78.87
2017-11-09T05:59:03.978Z,78.48
2017-11-09T06:01:31.573Z,78.69
2017-11-09T06:03:59.221Z,78.94
2017-11-09T06:06:26.880Z,79.01
2017-11-09T06:08:54.468Z,79.03
2017-11-09T06:11:22.588Z,79.06
2017-11-09T06:13:50.176Z,78.88
2017-11-09T06:16:17.849Z,78.93
2017-11-09T06:18:45.888Z,78.94
2017-11-09T06:21:13.489Z,79.70
2017-11-09T06:23:41.114Z,79.96
2017-11-09T06:26:08.718Z,80.18
2017-11-09T06:28:36.365Z,80.48
2017-11-09T06:31:03.969Z,80.76
2017-11-09T06:33:31.556Z,80.82
2017-11-09T06:35:59.434Z,81.42
2017-11-09T06:38:27.018Z,81.58
2017-11-09T06:40:54.658Z,81.33
2017-11-09T06:43:22.249Z,81.63
2017-11-09T06:45:49.837Z,81.47
2017-11-09T06:48:17.487Z,81.16
2017-11-09T06:50:45.116Z,81.01
2017-11-09T06:53:12.835Z,80.87
2017-11-09T06:55:40.726Z,80.77
2017-11-09T06:58:08.319Z,80.68
2017-11-09T07:00:35.949Z,80.26
2017-11-09T07:03:03.548Z,79.98
2017-11-09T07:05:31.207Z,79.97
2017-11-09T07:07:58.814Z,79.97
2017-11-09T07:10:26.415Z,80.01
2017-11-09T07:12:54.050Z,79.46
2017-11-09T07:15:21.647Z,79.50
2017-11-09T07:17:49.338Z,79.49
2017-11-09T07:20:16.933Z,79.36
2017-11-09T07:22:44.589Z,79.53
2017-11-09T07:25:12.483Z,79.61
2017-11-09T07:27:40.124Z,79.95
2017-11-09T07:30:07.776Z,79.63
2017-11-09T07:32:35.383Z,79.50
2017-11-09T07:35:03.015Z,79.52
2017-11-09T07:37:30.664Z,79.37
2017-11-09T07:39:58.246Z,79.22
2017-11-09T07:42:25.893Z,79.16
2017-11-09T07:44:53.492Z,79.10
2017-11-09T07:47:21.129Z,79.63
2017-11-09T07:49:48.767Z,79.93
2017-11-09T07:52:16.776Z,80.54
2017-11-09T07:54:44.746Z,80.62
2017-11-09T07:57:12.383Z,80.70
2017-11-09T07:59:39.991Z,80.42
2017-11-09T08:02:07.939Z,80.25
2017-11-09T08:04:36.526Z,80.09
2017-11-09T08:07:04.181Z,79.86
2017-11-09T08:09:31.974Z,80.00
2017-11-09T08:12:00.032Z,80.60
2017-11-09T08:14:27.869Z,80.39
2017-11-09T08:16:55.534Z,80.37
2017-11-09T08:19:23.162Z,80.21
2017-11-09T08:21:50.824Z,80.14
2017-11-09T08:24:19.872Z,80.64
2017-11-09T08:26:49.790Z,80.70
2017-11-09T08:29:21.241Z,80.45
2017-11-09T08:31:50.787Z,80.22
2017-11-09T08:34:18.427Z,79.74
2017-11-09T08:36:46.402Z,79.60
2017-11-09T08:39:14.053Z,80.17
2017-11-09T08:41:42.025Z,80.24
2017-11-09T08:44:09.674Z,80.66
2017-11-09T08:46:37.316Z,81.18
2017-11-09T08:49:04.995Z,81.31
2017-11-09T08:51:32.621Z,80.62
2017-11-09T08:54:00.233Z,80.35
2017-11-09T08:56:27.879Z,80.31
2017-11-09T08:58:55.480Z,80.11
2017-11-09T09:01:23.089Z,80.04
2017-11-09T09:03:50.734Z,79.87
2017-11-09T09:06:18.337Z,79.97
2017-11-09T09:08:45.986Z,79.93
2017-11-09T09:11:14.092Z,80.07
2017-11-09T09:13:41.754Z,80.15
2017-11-09T09:16:09.397Z,80.08
2017-11-09T09:18:37.384Z,79.88
2017-11-09T09:21:05.476Z,79.66
2017-11-09T09:23:33.158Z,80.21
2017-11-09T09:26:01.118Z,80.63
2017-11-09T09:28:44.361Z,81.17
2017-11-09T09:31:14.821Z,81.45
2017-11-09T09:33:45.575Z,81.22
2017-11-09T09:39:20.729Z,80.17
2017-11-09T09:41:48.333Z,80.08
2017-11-09T09:44:15.987Z,79.94
2017-11-09T09:46:43.673Z,79.67
2017-11-09T09:49:11.329Z,79.52
2017-11-09T09:51:38.933Z,79.55
2017-11-09T09:54:06.537Z,79.13
2017-11-09T09:56:34.192Z,79.93
2017-11-09T09:59:01.816Z,80.47
2017-11-09T10:01:29.484Z,80.61
2017-11-09T10:03:57.070Z,80.36
2017-11-09T10:06:24.682Z,80.37
2017-11-09T10:08:52.356Z,79.94
2017-11-09T10:11:19.970Z,80.00
2017-11-09T10:13:47.605Z,79.82
2017-11-09T10:16:15.251Z,80.05
2017-11-09T10:18:42.858Z,79.91
2017-11-09T10:21:10.901Z,80.18
2017-11-09T10:23:39.709Z,80.44
2017-11-09T10:26:07.737Z,80.43
2017-11-09T10:28:35.408Z,80.36
2017-11-09T10:31:03.060Z,80.23
2017-11-09T10:33:31.064Z,80.36
2017-11-09T10:35:58.686Z,79.94
2017-11-09T10:38:26.346Z,79.86
2017-11-09T10:40:53.950Z,80.00
2017-11-09T10:43:21.854Z,80.21
2017-11-09T10:45:49.515Z,80.20
2017-11-09T10:48:17.149Z,80.20
2017-11-09T10:50:44.816Z,79.98
2017-11-09T10:53:12.416Z,79.76
2017-11-09T10:55:40.005Z,80.24
2017-11-09T10:58:07.640Z,80.14
2017-11-09T11:00:40.947Z,80.11
2017-11-09T11:03:08.603Z,80.40
2017-11-09T11:05:36.203Z,80.69
2017-11-09T11:08:03.816Z,80.59
2017-11-09T11:10:31.477Z,80.48
2017-11-09T11:12:59.413Z,80.69
2017-11-09T11:15:27.050Z,81.14
2017-11-09T11:17:54.658Z,81.16
2017-11-09T11:20:22.635Z,81.13
2017-11-09T11:22:50.298Z,81.04
2017-11-09T11:25:18.553Z,80.96
2017-11-09T11:27:46.191Z,80.91
2017-11-09T11:30:13.816Z,80.69
2017-11-09T11:32:41.942Z,81.50
2017-11-09T11:35:10.198Z,81.42
2017-11-09T11:37:37.850Z,81.72
2017-11-09T11:40:05.774Z,82.26
2017-11-09T11:42:33.380Z,81.80
2017-11-09T11:45:00.990Z,81.68
2017-11-09T11:47:34.526Z,81.41
2017-11-09T11:50:02.145Z,81.58
2017-11-09T11:52:29.788Z,81.63
2017-11-09T11:54:57.397Z,81.68
2017-11-09T11:57:25.006Z,81.63
2017-11-09T11:59:52.636Z,81.84
2017-11-09T12:02:20.283Z,81.61
2017-11-09T12:04:52.930Z,82.00
2017-11-09T12:07:20.522Z,82.22
2017-11-09T12:09:48.145Z,82.33
2017-11-09T12:12:15.765Z,81.91
2017-11-09T12:14:43.364Z,81.87
2017-11-09T12:17:11.033Z,81.53
2017-11-09T12:19:38.816Z,81.26
2017-11-09T12:22:17.580Z,81.08
2017-11-09T12:24:55.068Z,81.30
2017-11-09T12:27:22.963Z,82.11
2017-11-09T12:29:50.628Z,82.21
2017-11-09T12:32:18.617Z,82.13
2017-11-09T12:34:52.323Z,81.86
2017-11-09T12:37:19.914Z,81.72
2017-11-09T12:40:07.694Z,81.53
2017-11-09T12:42:35.308Z,81.35
2017-11-09T12:45:10.469Z,81.80
2017-11-09T12:47:41.566Z,81.85
2017-11-09T12:50:09.194Z,81.96
2017-11-09T12:52:36.991Z,82.10
2017-11-09T12:55:11.118Z,81.86
2017-11-09T12:57:38.768Z,81.81
2017-11-09T13:00:11.273Z,81.60
2017-11-09T13:02:40.796Z,81.54
2017-11-09T13:05:14.115Z,81.65
2017-11-09T13:07:47.615Z,81.65
2017-11-09T13:10:15.803Z,81.64
2017-11-09T13:12:43.508Z,81.25
2017-11-09T13:15:11.130Z,81.42
2017-11-09T13:17:38.740Z,81.25
2017-11-09T13:20:06.359Z,81.43
2017-11-09T13:22:34.025Z,81.48
2017-11-09T13:25:01.659Z,81.51
2017-11-09T13:27:29.398Z,81.36
2017-11-09T13:29:57.004Z,81.48
2017-11-09T13:35:03.059Z,81.72
2017-11-09T13:37:30.688Z,82.38
2017-11-09T13:39:58.794Z,82.39
2017-11-09T13:42:26.411Z,82.76
2017-11-09T13:44:54.074Z,82.98
2017-11-09T13:47:21.683Z,83.16
2017-11-09T13:49:49.602Z,83.18
2017-11-09T13:52:17.252Z,82.88
2017-11-09T13:54:44.892Z,82.53
2017-11-09T13:57:13.110Z,82.85
2017-11-09T13:59:40.782Z,83.11
2017-11-09T14:02:11.099Z,83.02
2017-11-09T14:04:41.260Z,83.25
2017-11-09T14:07:09.642Z,83.29
2017-11-09T14:09:37.587Z,83.24
2017-11-09T14:12:07.520Z,83.52
2017-11-09T14:14:35.406Z,83.26
2017-11-09T14:17:03.081Z,83.00
2017-11-09T14:19:30.730Z,82.73
2017-11-09T14:21:58.450Z,83.09
2017-11-09T14:24:26.048Z,83.19
2017-11-09T14:26:54.089Z,83.55
2017-11-09T14:29:21.804Z,83.52
2017-11-09T14:31:51.786Z,83.43
2017-11-09T14:34:19.582Z,83.52
2017-11-09T14:36:48.317Z,83.24
2017-11-09T14:39:16.123Z,83.12
2017-11-09T14:41:43.971Z,83.03
2017-11-09T14:44:12.658Z,82.90
2017-11-09T14:46:40.314Z,83.18
2017-11-09T14:49:07.965Z,83.50
2017-11-09T14:51:35.614Z,83.83
2017-11-09T14:54:03.504Z,83.85
2017-11-09T14:56:31.268Z,83.77
2017-11-09T14:58:58.937Z,83.94
2017-11-09T15:01:27.562Z,83.88
2017-11-09T15:03:59.051Z,83.76
2017-11-09T15:06:27.170Z,84.25
2017-11-09T15:08:54.890Z,84.21
2017-11-09T15:11:23.955Z,84.33
2017-11-09T15:13:52.169Z,84.30
2017-11-09T15:16:20.045Z,84.33
2017-11-09T15:18:48.467Z,84.32
2017-11-09T15:21:16.083Z,84.61
2017-11-09T15:23:43.726Z,84.41
2017-11-09T15:26:11.340Z,84.38
2017-11-09T15:28:38.972Z,84.87
2017-11-09T15:31:06.838Z,85.12
2017-11-09T15:33:34.440Z,85.23
2017-11-09T15:36:08.825Z,85.34
2017-11-09T15:38:42.473Z,84.97
2017-11-09T15:41:15.316Z,84.97
2017-11-09T15:43:43.131Z,85.37
2017-11-09T15:46:10.743Z,85.88
2017-11-09T15:48:38.682Z,85.86
2017-11-09T15:51:06.307Z,86.01
2017-11-09T15:53:33.942Z,85.81
2017-11-09T15:56:07.731Z,85.87
2017-11-09T15:58:43.581Z,85.61
2017-11-09T16:01:11.579Z,85.64
2017-11-09T16:03:39.195Z,85.78
2017-11-09T16:06:06.803Z,86.22
2017-11-09T16:08:34.446Z,86.45
2017-11-09T16:11:02.239Z,86.33
2017-11-09T16:13:30.186Z,86.24
2017-11-09T16:15:57.811Z,86.09
2017-11-09T16:18:25.512Z,86.21
2017-11-09T16:20:53.195Z,86.35
2017-11-09T16:23:20.796Z,86.56
2017-11-09T16:25:48.521Z,86.80
2017-11-09T16:28:16.119Z,86.61
2017-11-09T16:30:43.774Z,86.30
2017-11-09T16:33:11.663Z,86.36
2017-11-09T16:35:39.323Z,86.31
2017-11-09T16:38:07.244Z,86.75
2017-11-09T16:40:34.950Z,86.87
2017-11-09T16:43:02.581Z,86.87
2017-11-09T16:45:30.179Z,86.79
2017-11-09T16:47:57.859Z,86.69
2017-11-09T16:50:25.555Z,86.76
2017-11-09T16:52:57.113Z,86.82
2017-11-09T16:55:24.713Z,86.70
2017-11-09T16:57:52.621Z,86.84
2017-11-09T17:00:20.622Z,86.99
2017-11-09T17:02:48.574Z,87.02
2017-11-09T17:05:16.542Z,86.87
2017-11-09T17:07:44.171Z,86.79
2017-11-09T17:10:11.779Z,86.91
2017-11-09T17:12:39.425Z,86.96
2017-11-09T17:15:10.874Z,87.18
2017-11-09T17:17:38.490Z,87.25
2017-11-09T17:20:06.112Z,87.21
2017-11-09T17:22:34.032Z,87.13
2017-11-09T17:25:01.671Z,86.96
2017-11-09T17:27:29.312Z,86.73
2017-11-09T17:29:56.963Z,86.53
2017-11-09T17:32:24.574Z,86.76
2017-11-09T17:34:52.206Z,87.06
2017-11-09T17:37:19.849Z,86.98
2017-11-09T17:39:48.330Z,87.03
2017-11-09T17:42:18.949Z,87.14
2017-11-09T17:44:46.546Z,87.25
2017-11-09T17:47:14.173Z,87.38
2017-11-09T17:49:41.819Z,87.58
2017-11-09T17:52:09.411Z,87.57
2017-11-09T17:54:37.052Z,87.23
2017-11-09T17:57:04.718Z,87.22
2017-11-09T18:02:29.448Z,87.33
2017-11-09T18:04:57.958Z,87.21
2017-11-09T18:07:25.565Z,87.16
2017-11-09T18:09:53.245Z,87.13
2017-11-09T18:12:20.906Z,87.08
2017-11-09T18:14:48.555Z,87.06
2017-11-09T18:17:16.227Z,87.13
2017-11-09T18:19:44.405Z,87.21
2017-11-09T18:22:12.095Z,87.33
2017-11-09T18:24:39.751Z,87.12
2017-11-09T18:27:07.370Z,87.36
2017-11-09T18:29:35.046Z,87.26
2017-11-09T18:32:02.715Z,87.19
2017-11-09T18:34:30.355Z,86.88
2017-11-09T18:36:58.020Z,86.85
2017-11-09T18:39:25.645Z,86.77
2017-11-09T18:41:53.252Z,86.72
2017-11-09T18:44:21.254Z,86.92
2017-11-09T18:46:48.877Z,87.03
2017-11-09T18:49:16.575Z,86.80
2017-11-09T18:51:44.328Z,86.92
2017-11-09T18:54:11.990Z,86.94
2017-11-09T18:56:39.634Z,86.83
2017-11-09T18:59:12.797Z,86.83
2017-11-09T19:01:40.440Z,87.03
2017-11-09T19:04:08.064Z,86.99
2017-11-09T19:06:35.972Z,86.71
2017-11-09T19:09:03.642Z,86.74
2017-11-09T19:11:31.264Z,86.66
2017-11-09T19:13:58.913Z,86.60
2017-11-09T19:16:26.966Z,86.45
2017-11-09T19:18:54.690Z,86.38
2017-11-09T19:21:22.304Z,86.54
2017-11-09T19:23:49.929Z,86.59
2017-11-09T19:26:17.572Z,86.35
2017-11-09T19:28:45.349Z,86.28
2017-11-09T19:31:13.024Z,86.30
2017-11-09T19:33:40.682Z,86.32
2017-11-09T19:36:08.328Z,86.14
2017-11-09T19:38:36.297Z,86.09
2017-11-09T19:41:03.931Z,86.04
2017-11-09T19:43:31.721Z,85.86
2017-11-09T19:45:59.387Z,85.78
2017-11-09T19:48:27.065Z,85.67
2017-11-09T19:50:54.706Z,85.64
2017-11-09T19:53:22.384Z,85.60
2017-11-09T19:55:50.068Z,85.44
2017-11-09T19:58:17.826Z,85.39
2017-11-09T20:00:45.474Z,85.40
2017-11-09T20:03:13.156Z,85.40
2017-11-09T20:05:41.108Z,85.36
2017-11-09T20:08:08.844Z,85.47
2017-11-09T20:10:36.468Z,85.26
2017-11-09T20:13:04.112Z,85.27
2017-11-09T20:15:31.778Z,85.19
2017-11-09T20:17:59.449Z,85.13
2017-11-09T20:20:28.972Z,85.13
2017-11-09T20:22:56.628Z,85.28
2017-11-09T20:25:24.261Z,85.24
2017-11-09T20:27:51.931Z,85.21
2017-11-09T20:30:19.558Z,85.22
2017-11-09T20:32:47.251Z,85.14
2017-11-09T20:35:14.911Z,85.17
2017-11-09T20:37:42.558Z,84.96
2017-11-09T20:40:10.204Z,84.94
2017-11-09T20:42:37.941Z,84.85
2017-11-09T20:45:05.623Z,84.97
2017-11-09T20:47:33.538Z,84.96
2017-11-09T20:50:02.078Z,84.84
2017-11-09T20:52:29.778Z,84.81
2017-11-09T20:54:57.413Z,84.49
2017-11-09T20:57:25.132Z,84.40
2017-11-09T20:59:52.786Z,84.33
2017-11-09T21:02:20.451Z,84.31
2017-11-09T21:04:48.546Z,84.16
2017-11-09T21:07:16.186Z,84.05
2017-11-09T21:09:45.465Z,84.02
2017-11-09T21:12:13.439Z,83.71
2017-11-09T21:14:41.033Z,83.76
2017-11-09T21:17:08.935Z,83.62
2017-11-09T21:19:36.681Z,83.49
2017-11-09T21:22:04.357Z,83.42
2017-11-09T21:24:32.003Z,83.51
2017-11-09T21:26:59.604Z,83.45
2017-11-09T21:29:27.262Z,83.08
2017-11-09T21:31:54.894Z,83.11
2017-11-09T21:34:22.554Z,82.80
2017-11-09T21:36:50.149Z,82.91
2017-11-09T21:39:18.233Z,82.92
2017-11-09T21:41:45.947Z,83.14
2017-11-09T21:44:13.876Z,83.32
2017-11-09T21:46:41.592Z,83.26
2017-11-09T21:49:09.270Z,83.36
2017-11-09T21:51:36.897Z,83.41
2017-11-09T21:54:04.628Z,83.37
2017-11-09T21:56:32.290Z,83.34
2017-11-09T21:58:59.926Z,83.27
2017-11-09T22:01:27.548Z,83.33
2017-11-09T22:03:55.510Z,83.52
2017-11-09T22:06:23.225Z,83.63
2017-11-09T22:08:50.838Z,83.59
2017-11-09T22:11:18.496Z,83.79
2017-11-09T22:13:46.141Z,83.77
2017-11-09T22:16:13.736Z,83.83
2017-11-09T22:18:41.374Z,83.94
2017-11-09T22:21:08.973Z,83.95
2017-11-09T22:23:36.627Z,83.85
2017-11-09T22:26:04.293Z,83.93
2017-11-09T22:28:31.903Z,83.71
2017-11-09T22:30:59.566Z,83.74
2017-11-09T22:33:27.174Z,83.41
2017-11-09T22:35:54.808Z,83.58
2017-11-09T22:38:22.448Z,83.55
2017-11-09T22:40:50.054Z,83.23
2017-11-09T22:43:17.690Z,83.44
2017-11-09T22:45:45.369Z,83.32
2017-11-09T22:48:13.026Z,83.23
2017-11-09T22:50:40.733Z,83.18
2017-11-09T22:53:09.994Z,83.32
2017-11-09T22:55:37.637Z,83.17
2017-11-09T22:58:05.238Z,83.08
2017-11-09T23:00:32.885Z,82.96
2017-11-09T23:03:00.482Z,82.92
2017-11-09T23:05:28.092Z,83.13
2017-11-09T23:07:55.731Z,83.19
2017-11-09T23:10:23.365Z,82.98
2017-11-09T23:12:51.002Z,82.69
2017-11-09T23:15:18.629Z,82.29
2017-11-09T23:17:46.298Z,82.40
2017-11-09T23:20:14.268Z,82.20
2017-11-09T23:22:42.155Z,81.91
2017-11-09T23:25:09.874Z,82.03
2017-11-09T23:27:37.497Z,81.82
2017-11-09T23:30:05.103Z,81.87
2017-11-09T23:32:32.992Z,81.64
2017-11-09T23:35:00.659Z,81.59
2017-11-09T23:37:28.645Z,81.57
2017-11-09T23:39:56.277Z,81.60
2017-11-09T23:42:23.884Z,81.33
2017-11-09T23:44:51.516Z,81.23
2017-11-09T23:47:19.154Z,81.06
2017-11-09T23:49:46.812Z,81.18
2017-11-09T23:52:14.437Z,81.10
2017-11-09T23:54:42.070Z,81.13
2017-11-09T23:57:09.726Z,81.13
2017-11-09T23:59:37.341Z,81.29
